sensor_id;sensor_type;location;lat;lon;timestamp;temperature;humidity
3198;DHT22;1611;49.394;11.136;2023-12-28T00:01:22;4.10;70.40
3198;DHT22;1611;49.394;11.136;2023-12-28T00:03:49;4.10;70.30
3198;DHT22;1611;49.394;11.136;2023-12-28T00:06:17;4.00;69.60
3198;DHT22;1611;49.394;11.136;2023-12-28T00:08:44;4.00;70.40
3198;DHT22;1611;49.394;11.136;2023-12-28T00:11:11;4.10;69.20
3198;DHT22;1611;49.394;11.136;2023-12-28T00:13:37;4.10;69.10
3198;DHT22;1611;49.394;11.136;2023-12-28T00:16:05;4.10;68.90
3198;DHT22;1611;49.394;11.136;2023-12-28T00:18:32;4.10;69.00
3198;DHT22;1611;49.394;11.136;2023-12-28T00:20:58;4.00;68.10
3198;DHT22;1611;49.394;11.136;2023-12-28T00:23:27;4.10;68.50
3198;DHT22;1611;49.394;11.136;2023-12-28T00:25:53;4.10;68.40
3198;DHT22;1611;49.394;11.136;2023-12-28T00:28:20;4.10;67.30
3198;DHT22;1611;49.394;11.136;2023-12-28T00:30:47;4.10;67.20
3198;DHT22;1611;49.394;11.136;2023-12-28T00:33:13;4.10;66.90
3198;DHT22;1611;49.394;11.136;2023-12-28T00:35:40;4.00;66.80
3198;DHT22;1611;49.394;11.136;2023-12-28T00:38:07;4.00;66.20
3198;DHT22;1611;49.394;11.136;2023-12-28T00:40:35;4.00;65.90
3198;DHT22;1611;49.394;11.136;2023-12-28T00:43:02;4.00;66.30
3198;DHT22;1611;49.394;11.136;2023-12-28T00:45:28;4.00;65.60
3198;DHT22;1611;49.394;11.136;2023-12-28T00:47:55;4.00;65.90
3198;DHT22;1611;49.394;11.136;2023-12-28T00:50:22;4.00;66.10
3198;DHT22;1611;49.394;11.136;2023-12-28T00:52:49;4.00;66.20
3198;DHT22;1611;49.394;11.136;2023-12-28T00:55:15;4.00;64.80
3198;DHT22;1611;49.394;11.136;2023-12-28T00:57:43;4.00;65.10
3198;DHT22;1611;49.394;11.136;2023-12-28T01:00:11;4.00;64.40
3198;DHT22;1611;49.394;11.136;2023-12-28T01:02:38;3.90;65.00
3198;DHT22;1611;49.394;11.136;2023-12-28T01:05:05;3.90;65.00
3198;DHT22;1611;49.394;11.136;2023-12-28T01:07:31;4.00;64.00
3198;DHT22;1611;49.394;11.136;2023-12-28T01:09:58;4.00;64.30
3198;DHT22;1611;49.394;11.136;2023-12-28T01:12:25;4.00;62.40
3198;DHT22;1611;49.394;11.136;2023-12-28T01:14:53;4.00;63.20
3198;DHT22;1611;49.394;11.136;2023-12-28T01:17:19;4.00;63.10
3198;DHT22;1611;49.394;11.136;2023-12-28T01:19:46;4.00;61.80
3198;DHT22;1611;49.394;11.136;2023-12-28T01:22:13;4.00;62.40
3198;DHT22;1611;49.394;11.136;2023-12-28T01:24:40;4.00;62.30
3198;DHT22;1611;49.394;11.136;2023-12-28T01:27:06;3.90;59.60
3198;DHT22;1611;49.394;11.136;2023-12-28T01:29:32;4.00;59.70
3198;DHT22;1611;49.394;11.136;2023-12-28T01:32:03;4.00;59.00
3198;DHT22;1611;49.394;11.136;2023-12-28T01:34:30;4.00;58.90
3198;DHT22;1611;49.394;11.136;2023-12-28T01:36:57;4.20;58.60
3198;DHT22;1611;49.394;11.136;2023-12-28T01:39:23;4.10;58.30
3198;DHT22;1611;49.394;11.136;2023-12-28T01:41:50;4.10;59.70
3198;DHT22;1611;49.394;11.136;2023-12-28T01:44:17;4.10;59.60
3198;DHT22;1611;49.394;11.136;2023-12-28T01:46:44;4.20;58.70
3198;DHT22;1611;49.394;11.136;2023-12-28T01:49:12;4.10;60.10
3198;DHT22;1611;49.394;11.136;2023-12-28T01:51:39;4.10;59.20
3198;DHT22;1611;49.394;11.136;2023-12-28T01:54:06;4.10;60.40
3198;DHT22;1611;49.394;11.136;2023-12-28T01:56:34;4.10;57.40
3198;DHT22;1611;49.394;11.136;2023-12-28T01:59:01;4.20;59.00
3198;DHT22;1611;49.394;11.136;2023-12-28T02:01:28;4.10;58.30
3198;DHT22;1611;49.394;11.136;2023-12-28T02:03:55;4.20;59.50
3198;DHT22;1611;49.394;11.136;2023-12-28T02:06:23;4.10;59.70
3198;DHT22;1611;49.394;11.136;2023-12-28T02:08:50;4.20;60.00
3198;DHT22;1611;49.394;11.136;2023-12-28T02:11:18;4.10;59.70
3198;DHT22;1611;49.394;11.136;2023-12-28T02:13:46;4.10;59.70
3198;DHT22;1611;49.394;11.136;2023-12-28T02:16:15;4.00;59.30
3198;DHT22;1611;49.394;11.136;2023-12-28T02:18:44;4.00;60.10
3198;DHT22;1611;49.394;11.136;2023-12-28T02:21:13;4.00;59.50
3198;DHT22;1611;49.394;11.136;2023-12-28T02:23:47;3.90;58.90
3198;DHT22;1611;49.394;11.136;2023-12-28T02:26:16;3.90;60.00
3198;DHT22;1611;49.394;11.136;2023-12-28T02:28:43;3.80;59.10
3198;DHT22;1611;49.394;11.136;2023-12-28T02:31:16;3.90;59.40
3198;DHT22;1611;49.394;11.136;2023-12-28T02:33:49;3.80;59.20
3198;DHT22;1611;49.394;11.136;2023-12-28T02:36:18;3.90;57.80
3198;DHT22;1611;49.394;11.136;2023-12-28T02:38:48;4.00;58.40
3198;DHT22;1611;49.394;11.136;2023-12-28T02:41:17;3.90;58.90
3198;DHT22;1611;49.394;11.136;2023-12-28T02:43:44;3.90;59.00
3198;DHT22;1611;49.394;11.136;2023-12-28T02:46:13;4.00;57.50
3198;DHT22;1611;49.394;11.136;2023-12-28T02:48:40;3.90;58.50
3198;DHT22;1611;49.394;11.136;2023-12-28T02:51:06;3.90;57.50
3198;DHT22;1611;49.394;11.136;2023-12-28T02:53:33;3.90;58.60
3198;DHT22;1611;49.394;11.136;2023-12-28T02:56:00;3.90;58.90
3198;DHT22;1611;49.394;11.136;2023-12-28T02:58:28;3.90;58.20
3198;DHT22;1611;49.394;11.136;2023-12-28T03:00:54;3.90;58.40
3198;DHT22;1611;49.394;11.136;2023-12-28T03:03:21;3.80;56.30
3198;DHT22;1611;49.394;11.136;2023-12-28T03:05:48;3.90;57.50
3198;DHT22;1611;49.394;11.136;2023-12-28T03:08:15;3.80;57.40
3198;DHT22;1611;49.394;11.136;2023-12-28T03:10:42;3.80;58.20
3198;DHT22;1611;49.394;11.136;2023-12-28T03:13:09;3.80;57.80
3198;DHT22;1611;49.394;11.136;2023-12-28T03:15:37;3.80;57.70
3198;DHT22;1611;49.394;11.136;2023-12-28T03:18:04;3.70;58.90
3198;DHT22;1611;49.394;11.136;2023-12-28T03:20:30;3.70;58.60
3198;DHT22;1611;49.394;11.136;2023-12-28T03:22:57;3.60;59.00
3198;DHT22;1611;49.394;11.136;2023-12-28T03:25:24;3.70;58.60
3198;DHT22;1611;49.394;11.136;2023-12-28T03:27:50;3.60;59.00
3198;DHT22;1611;49.394;11.136;2023-12-28T03:30:17;3.50;59.10
3198;DHT22;1611;49.394;11.136;2023-12-28T03:32:45;3.50;59.10
3198;DHT22;1611;49.394;11.136;2023-12-28T03:35:12;3.50;58.90
3198;DHT22;1611;49.394;11.136;2023-12-28T03:37:39;3.50;59.00
3198;DHT22;1611;49.394;11.136;2023-12-28T03:40:06;3.50;58.90
3198;DHT22;1611;49.394;11.136;2023-12-28T03:42:33;3.50;58.80
3198;DHT22;1611;49.394;11.136;2023-12-28T03:45:00;3.50;58.90
3198;DHT22;1611;49.394;11.136;2023-12-28T03:47:27;3.50;59.60
3198;DHT22;1611;49.394;11.136;2023-12-28T03:49:55;3.60;60.10
3198;DHT22;1611;49.394;11.136;2023-12-28T03:52:22;3.50;59.60
3198;DHT22;1611;49.394;11.136;2023-12-28T03:54:49;3.50;59.70
3198;DHT22;1611;49.394;11.136;2023-12-28T03:57:16;3.50;59.10
3198;DHT22;1611;49.394;11.136;2023-12-28T03:59:42;3.50;58.70
3198;DHT22;1611;49.394;11.136;2023-12-28T04:02:09;3.70;57.60
3198;DHT22;1611;49.394;11.136;2023-12-28T04:04:36;3.70;58.40
3198;DHT22;1611;49.394;11.136;2023-12-28T04:07:04;3.70;58.40
3198;DHT22;1611;49.394;11.136;2023-12-28T04:09:32;3.70;58.50
3198;DHT22;1611;49.394;11.136;2023-12-28T04:11:59;3.70;58.80
3198;DHT22;1611;49.394;11.136;2023-12-28T04:14:26;3.70;58.80
3198;DHT22;1611;49.394;11.136;2023-12-28T04:16:52;3.60;59.20
3198;DHT22;1611;49.394;11.136;2023-12-28T04:19:19;3.60;59.80
3198;DHT22;1611;49.394;11.136;2023-12-28T04:21:46;3.60;59.40
3198;DHT22;1611;49.394;11.136;2023-12-28T04:24:14;3.60;58.10
3198;DHT22;1611;49.394;11.136;2023-12-28T04:26:40;3.70;56.60
3198;DHT22;1611;49.394;11.136;2023-12-28T04:29:07;3.80;57.60
3198;DHT22;1611;49.394;11.136;2023-12-28T04:31:39;3.80;58.10
3198;DHT22;1611;49.394;11.136;2023-12-28T04:34:06;3.80;57.80
3198;DHT22;1611;49.394;11.136;2023-12-28T04:36:39;3.90;59.30
3198;DHT22;1611;49.394;11.136;2023-12-28T04:39:06;3.90;58.80
3198;DHT22;1611;49.394;11.136;2023-12-28T04:41:34;3.90;58.40
3198;DHT22;1611;49.394;11.136;2023-12-28T04:44:01;3.90;57.90
3198;DHT22;1611;49.394;11.136;2023-12-28T04:46:28;4.00;58.50
3198;DHT22;1611;49.394;11.136;2023-12-28T04:48:55;4.00;57.20
3198;DHT22;1611;49.394;11.136;2023-12-28T04:51:21;4.00;57.60
3198;DHT22;1611;49.394;11.136;2023-12-28T04:53:48;4.00;57.80
3198;DHT22;1611;49.394;11.136;2023-12-28T04:56:18;4.00;57.50
3198;DHT22;1611;49.394;11.136;2023-12-28T04:58:46;4.10;57.50
3198;DHT22;1611;49.394;11.136;2023-12-28T05:01:13;4.20;56.30
3198;DHT22;1611;49.394;11.136;2023-12-28T05:03:39;4.20;57.00
3198;DHT22;1611;49.394;11.136;2023-12-28T05:06:06;4.20;57.50
3198;DHT22;1611;49.394;11.136;2023-12-28T05:08:33;4.30;55.80
3198;DHT22;1611;49.394;11.136;2023-12-28T05:11:00;4.30;54.70
3198;DHT22;1611;49.394;11.136;2023-12-28T05:13:26;4.40;55.40
3198;DHT22;1611;49.394;11.136;2023-12-28T05:15:54;4.50;54.90
3198;DHT22;1611;49.394;11.136;2023-12-28T05:18:21;4.50;55.30
3198;DHT22;1611;49.394;11.136;2023-12-28T05:20:48;4.50;54.20
3198;DHT22;1611;49.394;11.136;2023-12-28T05:23:14;4.60;54.20
3198;DHT22;1611;49.394;11.136;2023-12-28T05:25:41;4.60;55.60
3198;DHT22;1611;49.394;11.136;2023-12-28T05:28:08;4.70;56.50
3198;DHT22;1611;49.394;11.136;2023-12-28T05:30:34;4.80;56.50
3198;DHT22;1611;49.394;11.136;2023-12-28T05:33:03;4.70;56.80
3198;DHT22;1611;49.394;11.136;2023-12-28T05:35:30;4.80;57.00
3198;DHT22;1611;49.394;11.136;2023-12-28T05:37:56;4.80;57.20
3198;DHT22;1611;49.394;11.136;2023-12-28T05:40:23;4.90;56.40
3198;DHT22;1611;49.394;11.136;2023-12-28T05:42:50;4.90;57.10
3198;DHT22;1611;49.394;11.136;2023-12-28T05:45:16;4.80;57.30
3198;DHT22;1611;49.394;11.136;2023-12-28T05:47:43;4.80;55.80
3198;DHT22;1611;49.394;11.136;2023-12-28T05:50:11;4.90;56.30
3198;DHT22;1611;49.394;11.136;2023-12-28T05:52:38;5.00;56.60
3198;DHT22;1611;49.394;11.136;2023-12-28T05:55:05;5.00;56.50
3198;DHT22;1611;49.394;11.136;2023-12-28T05:57:32;5.10;56.90
3198;DHT22;1611;49.394;11.136;2023-12-28T05:59:58;5.20;56.30
3198;DHT22;1611;49.394;11.136;2023-12-28T06:02:25;5.20;55.70
3198;DHT22;1611;49.394;11.136;2023-12-28T06:04:52;5.40;55.70
3198;DHT22;1611;49.394;11.136;2023-12-28T06:07:20;5.40;52.10
3198;DHT22;1611;49.394;11.136;2023-12-28T06:09:46;5.40;53.80
3198;DHT22;1611;49.394;11.136;2023-12-28T06:12:12;5.50;54.30
3198;DHT22;1611;49.394;11.136;2023-12-28T06:14:39;5.50;54.30
3198;DHT22;1611;49.394;11.136;2023-12-28T06:17:06;5.60;54.20
3198;DHT22;1611;49.394;11.136;2023-12-28T06:19:32;5.60;54.00
3198;DHT22;1611;49.394;11.136;2023-12-28T06:21:59;5.60;53.40
3198;DHT22;1611;49.394;11.136;2023-12-28T06:24:27;5.70;53.40
3198;DHT22;1611;49.394;11.136;2023-12-28T06:26:54;5.80;54.20
3198;DHT22;1611;49.394;11.136;2023-12-28T06:29:21;5.80;53.10
3198;DHT22;1611;49.394;11.136;2023-12-28T06:31:48;5.90;54.00
3198;DHT22;1611;49.394;11.136;2023-12-28T06:34:15;5.80;52.40
3198;DHT22;1611;49.394;11.136;2023-12-28T06:36:42;5.80;53.50
3198;DHT22;1611;49.394;11.136;2023-12-28T06:39:09;5.90;52.50
3198;DHT22;1611;49.394;11.136;2023-12-28T06:41:37;5.90;51.30
3198;DHT22;1611;49.394;11.136;2023-12-28T06:44:04;5.90;49.30
3198;DHT22;1611;49.394;11.136;2023-12-28T06:46:31;6.00;49.40
3198;DHT22;1611;49.394;11.136;2023-12-28T06:48:57;6.10;51.00
3198;DHT22;1611;49.394;11.136;2023-12-28T06:51:24;6.10;52.50
3198;DHT22;1611;49.394;11.136;2023-12-28T06:53:52;6.10;53.20
3198;DHT22;1611;49.394;11.136;2023-12-28T06:56:18;6.20;51.80
3198;DHT22;1611;49.394;11.136;2023-12-28T06:58:46;6.20;52.50
3198;DHT22;1611;49.394;11.136;2023-12-28T07:01:13;6.30;53.10
3198;DHT22;1611;49.394;11.136;2023-12-28T07:03:40;6.30;53.20
3198;DHT22;1611;49.394;11.136;2023-12-28T07:06:07;6.30;53.50
3198;DHT22;1611;49.394;11.136;2023-12-28T07:08:33;6.20;54.20
3198;DHT22;1611;49.394;11.136;2023-12-28T07:11:01;6.30;54.70
3198;DHT22;1611;49.394;11.136;2023-12-28T07:13:28;6.30;50.50
3198;DHT22;1611;49.394;11.136;2023-12-28T07:15:56;6.30;54.80
3198;DHT22;1611;49.394;11.136;2023-12-28T07:18:23;6.40;55.70
3198;DHT22;1611;49.394;11.136;2023-12-28T07:20:50;6.30;56.40
3198;DHT22;1611;49.394;11.136;2023-12-28T07:23:17;6.30;57.10
3198;DHT22;1611;49.394;11.136;2023-12-28T07:25:43;6.40;57.30
3198;DHT22;1611;49.394;11.136;2023-12-28T07:28:10;6.40;57.50
3198;DHT22;1611;49.394;11.136;2023-12-28T07:30:37;6.50;55.40
3198;DHT22;1611;49.394;11.136;2023-12-28T07:33:05;6.50;50.20
3198;DHT22;1611;49.394;11.136;2023-12-28T07:35:32;6.60;51.00
3198;DHT22;1611;49.394;11.136;2023-12-28T07:37:59;6.60;52.90
3198;DHT22;1611;49.394;11.136;2023-12-28T07:40:26;6.70;53.90
3198;DHT22;1611;49.394;11.136;2023-12-28T07:42:53;6.70;53.80
3198;DHT22;1611;49.394;11.136;2023-12-28T07:45:19;6.70;52.30
3198;DHT22;1611;49.394;11.136;2023-12-28T07:47:49;6.70;52.40
3198;DHT22;1611;49.394;11.136;2023-12-28T07:50:17;6.80;48.90
3198;DHT22;1611;49.394;11.136;2023-12-28T07:52:45;6.90;48.20
3198;DHT22;1611;49.394;11.136;2023-12-28T07:55:12;6.80;50.10
3198;DHT22;1611;49.394;11.136;2023-12-28T07:57:39;6.80;50.90
3198;DHT22;1611;49.394;11.136;2023-12-28T08:00:06;6.90;51.90
3198;DHT22;1611;49.394;11.136;2023-12-28T08:02:34;6.90;52.70
3198;DHT22;1611;49.394;11.136;2023-12-28T08:05:00;6.90;54.10
3198;DHT22;1611;49.394;11.136;2023-12-28T08:07:28;6.90;52.90
3198;DHT22;1611;49.394;11.136;2023-12-28T08:09:55;6.90;52.00
3198;DHT22;1611;49.394;11.136;2023-12-28T08:12:22;6.90;52.50
3198;DHT22;1611;49.394;11.136;2023-12-28T08:14:50;6.90;51.90
3198;DHT22;1611;49.394;11.136;2023-12-28T08:17:16;6.90;52.70
3198;DHT22;1611;49.394;11.136;2023-12-28T08:19:43;6.90;51.20
3198;DHT22;1611;49.394;11.136;2023-12-28T08:22:10;7.00;51.00
3198;DHT22;1611;49.394;11.136;2023-12-28T08:24:38;6.90;49.80
3198;DHT22;1611;49.394;11.136;2023-12-28T08:27:04;7.00;48.10
3198;DHT22;1611;49.394;11.136;2023-12-28T08:29:31;7.00;50.00
3198;DHT22;1611;49.394;11.136;2023-12-28T08:31:58;7.10;51.00
3198;DHT22;1611;49.394;11.136;2023-12-28T08:34:25;7.10;49.40
3198;DHT22;1611;49.394;11.136;2023-12-28T08:36:53;7.20;50.30
3198;DHT22;1611;49.394;11.136;2023-12-28T08:39:20;7.20;50.00
3198;DHT22;1611;49.394;11.136;2023-12-28T08:41:48;7.30;46.30
3198;DHT22;1611;49.394;11.136;2023-12-28T08:44:15;7.40;46.50
3198;DHT22;1611;49.394;11.136;2023-12-28T08:46:41;7.20;45.10
3198;DHT22;1611;49.394;11.136;2023-12-28T08:49:08;7.20;47.40
3198;DHT22;1611;49.394;11.136;2023-12-28T08:51:35;7.30;49.90
3198;DHT22;1611;49.394;11.136;2023-12-28T08:54:02;7.30;51.10
3198;DHT22;1611;49.394;11.136;2023-12-28T08:56:28;7.40;51.00
3198;DHT22;1611;49.394;11.136;2023-12-28T08:58:57;7.40;49.30
3198;DHT22;1611;49.394;11.136;2023-12-28T09:01:24;7.50;48.90
3198;DHT22;1611;49.394;11.136;2023-12-28T09:03:52;7.50;48.70
3198;DHT22;1611;49.394;11.136;2023-12-28T09:06:20;7.60;47.00
3198;DHT22;1611;49.394;11.136;2023-12-28T09:08:49;7.70;48.70
3198;DHT22;1611;49.394;11.136;2023-12-28T09:11:16;7.70;47.80
3198;DHT22;1611;49.394;11.136;2023-12-28T09:13:43;7.80;47.10
3198;DHT22;1611;49.394;11.136;2023-12-28T09:16:12;7.80;45.20
3198;DHT22;1611;49.394;11.136;2023-12-28T09:18:40;7.90;46.50
3198;DHT22;1611;49.394;11.136;2023-12-28T09:21:08;7.90;45.50
3198;DHT22;1611;49.394;11.136;2023-12-28T09:23:35;8.00;43.80
3198;DHT22;1611;49.394;11.136;2023-12-28T09:26:03;8.00;45.00
3198;DHT22;1611;49.394;11.136;2023-12-28T09:28:30;8.10;44.90
3198;DHT22;1611;49.394;11.136;2023-12-28T09:30:57;8.10;43.30
3198;DHT22;1611;49.394;11.136;2023-12-28T09:33:25;8.20;43.90
3198;DHT22;1611;49.394;11.136;2023-12-28T09:35:52;8.20;45.80
3198;DHT22;1611;49.394;11.136;2023-12-28T09:38:19;8.30;47.30
3198;DHT22;1611;49.394;11.136;2023-12-28T09:40:48;8.40;46.60
3198;DHT22;1611;49.394;11.136;2023-12-28T09:43:22;8.40;43.30
3198;DHT22;1611;49.394;11.136;2023-12-28T09:45:50;8.40;44.10
3198;DHT22;1611;49.394;11.136;2023-12-28T09:48:18;8.50;46.60
3198;DHT22;1611;49.394;11.136;2023-12-28T09:50:49;8.50;47.30
3198;DHT22;1611;49.394;11.136;2023-12-28T09:53:16;8.50;47.80
3198;DHT22;1611;49.394;11.136;2023-12-28T09:55:44;8.50;48.40
3198;DHT22;1611;49.394;11.136;2023-12-28T09:58:12;8.50;46.70
3198;DHT22;1611;49.394;11.136;2023-12-28T10:00:41;8.60;45.30
3198;DHT22;1611;49.394;11.136;2023-12-28T10:03:11;8.60;42.60
3198;DHT22;1611;49.394;11.136;2023-12-28T10:05:40;8.70;43.80
3198;DHT22;1611;49.394;11.136;2023-12-28T10:08:10;8.70;46.00
3198;DHT22;1611;49.394;11.136;2023-12-28T10:10:37;8.80;45.60
3198;DHT22;1611;49.394;11.136;2023-12-28T10:13:04;8.90;45.50
3198;DHT22;1611;49.394;11.136;2023-12-28T10:15:31;8.80;47.10
3198;DHT22;1611;49.394;11.136;2023-12-28T10:17:57;8.90;48.90
3198;DHT22;1611;49.394;11.136;2023-12-28T10:20:26;8.90;49.70
3198;DHT22;1611;49.394;11.136;2023-12-28T10:22:53;8.90;45.50
3198;DHT22;1611;49.394;11.136;2023-12-28T10:25:21;8.90;45.30
3198;DHT22;1611;49.394;11.136;2023-12-28T10:27:50;9.00;46.80
3198;DHT22;1611;49.394;11.136;2023-12-28T10:30:17;9.10;45.70
3198;DHT22;1611;49.394;11.136;2023-12-28T10:32:45;9.10;43.60
3198;DHT22;1611;49.394;11.136;2023-12-28T10:35:12;9.10;44.30
3198;DHT22;1611;49.394;11.136;2023-12-28T10:37:40;9.20;45.90
3198;DHT22;1611;49.394;11.136;2023-12-28T10:40:09;9.30;47.70
3198;DHT22;1611;49.394;11.136;2023-12-28T10:42:49;9.30;46.00
3198;DHT22;1611;49.394;11.136;2023-12-28T10:45:19;9.30;45.90
3198;DHT22;1611;49.394;11.136;2023-12-28T10:47:57;9.40;47.10
3198;DHT22;1611;49.394;11.136;2023-12-28T10:50:27;9.50;44.50
3198;DHT22;1611;49.394;11.136;2023-12-28T10:53:01;9.60;44.10
3198;DHT22;1611;49.394;11.136;2023-12-28T10:55:36;9.70;43.00
3198;DHT22;1611;49.394;11.136;2023-12-28T10:58:12;9.70;42.30
3198;DHT22;1611;49.394;11.136;2023-12-28T11:00:43;9.80;44.40
3198;DHT22;1611;49.394;11.136;2023-12-28T11:03:15;9.80;43.30
3198;DHT22;1611;49.394;11.136;2023-12-28T11:05:45;9.90;42.40
3198;DHT22;1611;49.394;11.136;2023-12-28T11:08:14;10.00;43.60
3198;DHT22;1611;49.394;11.136;2023-12-28T11:10:41;10.00;45.30
3198;DHT22;1611;49.394;11.136;2023-12-28T11:13:10;10.00;46.00
3198;DHT22;1611;49.394;11.136;2023-12-28T11:15:38;10.10;46.90
3198;DHT22;1611;49.394;11.136;2023-12-28T11:18:05;10.30;47.70
3198;DHT22;1611;49.394;11.136;2023-12-28T11:20:33;10.30;45.80
3198;DHT22;1611;49.394;11.136;2023-12-28T11:22:59;10.40;45.30
3198;DHT22;1611;49.394;11.136;2023-12-28T11:25:31;10.40;44.80
3198;DHT22;1611;49.394;11.136;2023-12-28T11:27:59;10.50;45.20
3198;DHT22;1611;49.394;11.136;2023-12-28T11:30:27;10.60;43.00
3198;DHT22;1611;49.394;11.136;2023-12-28T11:32:56;10.60;40.60
3198;DHT22;1611;49.394;11.136;2023-12-28T11:35:23;10.50;38.60
3198;DHT22;1611;49.394;11.136;2023-12-28T11:37:53;10.60;38.90
3198;DHT22;1611;49.394;11.136;2023-12-28T11:40:21;10.70;39.60
3198;DHT22;1611;49.394;11.136;2023-12-28T11:42:52;10.90;39.60
3198;DHT22;1611;49.394;11.136;2023-12-28T11:45:19;11.00;46.40
3198;DHT22;1611;49.394;11.136;2023-12-28T11:47:58;11.20;46.50
3198;DHT22;1611;49.394;11.136;2023-12-28T11:50:25;11.30;42.90
3198;DHT22;1611;49.394;11.136;2023-12-28T11:52:52;11.30;42.30
3198;DHT22;1611;49.394;11.136;2023-12-28T11:55:21;11.40;38.80
3198;DHT22;1611;49.394;11.136;2023-12-28T11:57:47;11.40;37.70
3198;DHT22;1611;49.394;11.136;2023-12-28T12:00:15;11.30;37.80
3198;DHT22;1611;49.394;11.136;2023-12-28T12:02:43;11.30;38.00
3198;DHT22;1611;49.394;11.136;2023-12-28T12:05:12;11.20;38.30
3198;DHT22;1611;49.394;11.136;2023-12-28T12:07:40;11.10;39.80
3198;DHT22;1611;49.394;11.136;2023-12-28T12:10:08;11.00;40.50
3198;DHT22;1611;49.394;11.136;2023-12-28T12:12:35;10.90;41.30
3198;DHT22;1611;49.394;11.136;2023-12-28T12:15:01;10.80;42.30
3198;DHT22;1611;49.394;11.136;2023-12-28T12:17:28;10.70;42.50
3198;DHT22;1611;49.394;11.136;2023-12-28T12:19:55;10.70;42.20
3198;DHT22;1611;49.394;11.136;2023-12-28T12:22:25;10.70;44.60
3198;DHT22;1611;49.394;11.136;2023-12-28T12:24:53;10.60;47.10
3198;DHT22;1611;49.394;11.136;2023-12-28T12:27:20;10.50;48.30
3198;DHT22;1611;49.394;11.136;2023-12-28T12:29:47;10.50;49.10
3198;DHT22;1611;49.394;11.136;2023-12-28T12:32:14;10.50;49.10
3198;DHT22;1611;49.394;11.136;2023-12-28T12:34:41;10.40;49.90
3198;DHT22;1611;49.394;11.136;2023-12-28T12:37:07;10.30;50.50
3198;DHT22;1611;49.394;11.136;2023-12-28T12:39:35;10.30;52.30
3198;DHT22;1611;49.394;11.136;2023-12-28T12:42:03;10.20;53.80
3198;DHT22;1611;49.394;11.136;2023-12-28T12:44:29;10.10;55.00
3198;DHT22;1611;49.394;11.136;2023-12-28T12:46:57;10.00;55.60
3198;DHT22;1611;49.394;11.136;2023-12-28T12:49:25;10.00;55.60
3198;DHT22;1611;49.394;11.136;2023-12-28T12:51:52;10.00;54.50
3198;DHT22;1611;49.394;11.136;2023-12-28T12:54:19;9.90;51.90
3198;DHT22;1611;49.394;11.136;2023-12-28T12:56:47;9.90;53.00
3198;DHT22;1611;49.394;11.136;2023-12-28T12:59:16;9.90;54.80
3198;DHT22;1611;49.394;11.136;2023-12-28T13:01:43;9.90;55.90
3198;DHT22;1611;49.394;11.136;2023-12-28T13:04:10;9.90;56.30
3198;DHT22;1611;49.394;11.136;2023-12-28T13:06:37;9.90;55.10
3198;DHT22;1611;49.394;11.136;2023-12-28T13:09:04;9.90;51.80
3198;DHT22;1611;49.394;11.136;2023-12-28T13:11:32;10.00;52.20
3198;DHT22;1611;49.394;11.136;2023-12-28T13:14:00;10.10;55.10
3198;DHT22;1611;49.394;11.136;2023-12-28T13:16:27;10.10;53.90
3198;DHT22;1611;49.394;11.136;2023-12-28T13:18:54;10.10;54.00
3198;DHT22;1611;49.394;11.136;2023-12-28T13:21:21;10.10;54.80
3198;DHT22;1611;49.394;11.136;2023-12-28T13:23:48;10.10;54.80
3198;DHT22;1611;49.394;11.136;2023-12-28T13:26:14;10.20;54.60
3198;DHT22;1611;49.394;11.136;2023-12-28T13:28:41;10.40;53.50
3198;DHT22;1611;49.394;11.136;2023-12-28T13:31:10;10.40;52.00
3198;DHT22;1611;49.394;11.136;2023-12-28T13:33:37;10.30;52.40
3198;DHT22;1611;49.394;11.136;2023-12-28T13:36:04;10.40;51.30
3198;DHT22;1611;49.394;11.136;2023-12-28T13:38:31;10.40;50.60
3198;DHT22;1611;49.394;11.136;2023-12-28T13:40:58;10.40;51.70
3198;DHT22;1611;49.394;11.136;2023-12-28T13:43:24;10.30;51.40
3198;DHT22;1611;49.394;11.136;2023-12-28T13:45:51;10.30;51.40
3198;DHT22;1611;49.394;11.136;2023-12-28T13:48:19;10.30;49.60
3198;DHT22;1611;49.394;11.136;2023-12-28T13:50:46;10.30;49.50
3198;DHT22;1611;49.394;11.136;2023-12-28T13:53:12;10.20;49.90
3198;DHT22;1611;49.394;11.136;2023-12-28T13:55:39;10.30;51.00
3198;DHT22;1611;49.394;11.136;2023-12-28T13:58:06;10.30;51.70
3198;DHT22;1611;49.394;11.136;2023-12-28T14:00:33;10.30;53.90
3198;DHT22;1611;49.394;11.136;2023-12-28T14:03:00;10.20;54.10
3198;DHT22;1611;49.394;11.136;2023-12-28T14:05:29;10.20;54.50
3198;DHT22;1611;49.394;11.136;2023-12-28T14:07:57;10.10;54.90
3198;DHT22;1611;49.394;11.136;2023-12-28T14:10:23;10.10;55.30
3198;DHT22;1611;49.394;11.136;2023-12-28T14:12:50;10.10;55.80
3198;DHT22;1611;49.394;11.136;2023-12-28T14:15:17;10.00;56.30
3198;DHT22;1611;49.394;11.136;2023-12-28T14:17:44;10.20;57.30
3198;DHT22;1611;49.394;11.136;2023-12-28T14:20:11;9.70;57.00
3198;DHT22;1611;49.394;11.136;2023-12-28T14:22:39;9.70;57.10
3198;DHT22;1611;49.394;11.136;2023-12-28T14:25:08;9.70;57.30
3198;DHT22;1611;49.394;11.136;2023-12-28T14:27:37;9.60;58.10
3198;DHT22;1611;49.394;11.136;2023-12-28T14:30:05;9.60;58.40
3198;DHT22;1611;49.394;11.136;2023-12-28T14:32:35;9.60;58.50
3198;DHT22;1611;49.394;11.136;2023-12-28T14:35:03;9.60;58.60
3198;DHT22;1611;49.394;11.136;2023-12-28T14:37:29;9.50;57.50
3198;DHT22;1611;49.394;11.136;2023-12-28T14:39:57;9.50;59.50
3198;DHT22;1611;49.394;11.136;2023-12-28T14:42:24;9.40;60.50
3198;DHT22;1611;49.394;11.136;2023-12-28T14:44:51;9.40;61.20
3198;DHT22;1611;49.394;11.136;2023-12-28T14:47:18;9.40;62.00
3198;DHT22;1611;49.394;11.136;2023-12-28T14:49:44;9.30;62.60
3198;DHT22;1611;49.394;11.136;2023-12-28T14:52:11;9.30;63.20
3198;DHT22;1611;49.394;11.136;2023-12-28T14:54:38;9.30;63.80
3198;DHT22;1611;49.394;11.136;2023-12-28T14:57:06;9.20;63.20
3198;DHT22;1611;49.394;11.136;2023-12-28T14:59:33;9.20;64.00
3198;DHT22;1611;49.394;11.136;2023-12-28T15:01:59;9.20;64.50
3198;DHT22;1611;49.394;11.136;2023-12-28T15:04:26;9.20;64.30
3198;DHT22;1611;49.394;11.136;2023-12-28T15:06:53;9.20;62.60
3198;DHT22;1611;49.394;11.136;2023-12-28T15:09:19;9.10;60.10
3198;DHT22;1611;49.394;11.136;2023-12-28T15:11:47;9.10;62.80
3198;DHT22;1611;49.394;11.136;2023-12-28T15:14:15;9.10;63.90
3198;DHT22;1611;49.394;11.136;2023-12-28T15:16:43;9.10;62.80
3198;DHT22;1611;49.394;11.136;2023-12-28T15:19:11;9.10;64.10
3198;DHT22;1611;49.394;11.136;2023-12-28T15:21:38;9.10;64.20
3198;DHT22;1611;49.394;11.136;2023-12-28T15:24:09;9.10;64.40
3198;DHT22;1611;49.394;11.136;2023-12-28T15:26:35;9.10;65.00
3198;DHT22;1611;49.394;11.136;2023-12-28T15:29:02;9.00;61.50
3198;DHT22;1611;49.394;11.136;2023-12-28T15:31:30;9.00;63.10
3198;DHT22;1611;49.394;11.136;2023-12-28T15:33:57;8.90;64.20
3198;DHT22;1611;49.394;11.136;2023-12-28T15:36:24;8.90;64.70
3198;DHT22;1611;49.394;11.136;2023-12-28T15:38:50;9.00;64.50
3198;DHT22;1611;49.394;11.136;2023-12-28T15:41:17;9.00;63.40
3198;DHT22;1611;49.394;11.136;2023-12-28T15:43:44;9.00;63.20
3198;DHT22;1611;49.394;11.136;2023-12-28T15:46:11;9.00;63.90
3198;DHT22;1611;49.394;11.136;2023-12-28T15:48:39;9.00;62.60
3198;DHT22;1611;49.394;11.136;2023-12-28T15:51:07;9.10;62.70
3198;DHT22;1611;49.394;11.136;2023-12-28T15:53:34;9.00;62.00
3198;DHT22;1611;49.394;11.136;2023-12-28T15:56:00;9.10;62.30
3198;DHT22;1611;49.394;11.136;2023-12-28T15:58:27;9.10;58.40
3198;DHT22;1611;49.394;11.136;2023-12-28T16:00:54;9.10;60.30